Atravesano, Mexico

12:08 PM CST on November 17, 2017 (GMT -0600)
Gen Ignacio Lopez Rayon | | Change Station

Elev 5226 ft 19.40 °N, 102.03 °W | Updated 26 minutes ago

Clear
Clear
73 °F
Feels Like 73 °F
N
8
Wind Variable Wind from SSE

Today
High -- | Low -- °F
--% Chance of Precip.
Yesterday
High -- | Low -- °F
Precip. -- in
Pressure 30.23 in
Visibility 12.0 miles
Clouds Clear
Dew Point 52 °F
Humidity 47%
Rainfall 0.00 in
Snow Depth Not available.
6:59 AM 6:10 PM
Waning Crescent, 1% visible
METAR MMPN 171742Z 15007KT 12SM SKC 23/11 A3023 RMK SLP/// 5//// 9// HZY
Pressure 30.23 in
Visibility 12.0 miles
Clouds Clear
Dew Point 52 °F
Humidity 47%
Rainfall 0.00 in
Snow Depth Not available.
6:59 AM 6:10 PM
Waning Crescent, 1% visible
METAR MMPN 171742Z 15007KT 12SM SKC 23/11 A3023 RMK SLP/// 5//// 9// HZY

Get Severe Weather Alerts

Thanks for signing up!

Be on the lookout for a verification email in your inbox.

You'll start receiving the daily forecast at 6 AM.

×

10-Day Weather Forecast

No radar image for this location.
×

Almanac

Astronomy

Nov. 17, 2017 Rise Set
Actual Time
Civil Twilight
Nautical Twilight
Astronomical Twilight
Moon
Length of Visible Light
Length of Day
Tomorrow will be .
, % of the Moon is Illuminated

Today's Extremes

Country Highs Country Lows

Community

WunderPhotos

Category 6

Welcome to Category 6. This is the collective home for Weather Underground's featured writeups by Dr. Jeff Masters (right), Bob Henson (left), Chris Burt, and other regular contributors.

Nearby

Air Quality

  Air Quality AQ Index Pollutant
Not available.

Snow Depth

Station Depth Elevation

Earthquake Activity

City Distance Mag. Time & Date
Minimum magnitude displayed is 2.5.

Coastal Water Temperatures

Place Temperature

Stations

Nearby Weather Stations

Station Location Temp. Windchill Dew Point Humidity Wind Precip. Elev Updated Type